Terminal Aerodrome Forecast
Issued by NWS Wakefield, VA

Home | Current Version | Previous Version | Text Only | Print | Product List | Glossary On
Versions: 1 2 3 4 5 6 7 8 9 10 11 12 13 14 15 16 17 18 19 20 21
189
FTUS41 KAKQ 250417 AAA
TAFRIC
TAF AMD
KRIC 250417Z 2504/2524 04018G28KT 3SM -RA BR OVC003
     FM251600 06010KT 3SM -SHRA OVC006
     FM252200 02007KT 6SM -SHRA OVC007=

USA.gov is the U.S. government's official web portal to all federal, state and local government web resources and services.